sensor_id;sensor_type;location;lat;lon;timestamp;P1;durP1;ratioP1;P2;durP2;ratioP2
5460;SDS011;2753;49.196;8.286;2022-11-12T00:00:33;42.63;;;13.87;;
5460;SDS011;2753;49.196;8.286;2022-11-12T00:03:00;27.00;;;12.43;;
5460;SDS011;2753;49.196;8.286;2022-11-12T00:05:25;48.47;;;13.03;;
5460;SDS011;2753;49.196;8.286;2022-11-12T00:07:51;36.67;;;12.87;;
5460;SDS011;2753;49.196;8.286;2022-11-12T00:10:17;39.73;;;13.30;;
5460;SDS011;2753;49.196;8.286;2022-11-12T00:12:43;57.83;;;14.23;;
5460;SDS011;2753;49.196;8.286;2022-11-12T00:15:10;46.53;;;13.60;;
5460;SDS011;2753;49.196;8.286;2022-11-12T00:17:36;31.07;;;12.53;;
5460;SDS011;2753;49.196;8.286;2022-11-12T00:20:02;45.97;;;13.17;;
5460;SDS011;2753;49.196;8.286;2022-11-12T00:22:28;38.63;;;10.63;;
5460;SDS011;2753;49.196;8.286;2022-11-12T00:24:54;39.97;;;11.83;;
5460;SDS011;2753;49.196;8.286;2022-11-12T00:27:20;29.90;;;11.60;;
5460;SDS011;2753;49.196;8.286;2022-11-12T00:29:46;29.73;;;12.47;;
5460;SDS011;2753;49.196;8.286;2022-11-12T00:32:12;38.30;;;12.40;;
5460;SDS011;2753;49.196;8.286;2022-11-12T00:34:38;38.50;;;12.60;;
5460;SDS011;2753;49.196;8.286;2022-11-12T00:37:04;39.07;;;12.13;;
5460;SDS011;2753;49.196;8.286;2022-11-12T00:39:29;38.97;;;14.07;;
5460;SDS011;2753;49.196;8.286;2022-11-12T00:41:55;35.63;;;11.17;;
5460;SDS011;2753;49.196;8.286;2022-11-12T00:44:21;30.17;;;10.97;;
5460;SDS011;2753;49.196;8.286;2022-11-12T00:46:47;28.63;;;11.07;;
5460;SDS011;2753;49.196;8.286;2022-11-12T00:49:13;28.63;;;10.73;;
5460;SDS011;2753;49.196;8.286;2022-11-12T00:51:40;36.83;;;11.73;;
5460;SDS011;2753;49.196;8.286;2022-11-12T00:54:06;43.53;;;11.73;;
5460;SDS011;2753;49.196;8.286;2022-11-12T00:56:31;45.17;;;12.57;;
5460;SDS011;2753;49.196;8.286;2022-11-12T00:58:57;42.43;;;11.80;;
5460;SDS011;2753;49.196;8.286;2022-11-12T01:01:24;39.60;;;12.33;;
5460;SDS011;2753;49.196;8.286;2022-11-12T01:03:50;62.63;;;11.00;;
5460;SDS011;2753;49.196;8.286;2022-11-12T01:06:17;35.93;;;12.27;;
5460;SDS011;2753;49.196;8.286;2022-11-12T01:08:44;30.53;;;11.47;;
5460;SDS011;2753;49.196;8.286;2022-11-12T01:11:20;24.00;;;10.57;;
5460;SDS011;2753;49.196;8.286;2022-11-12T01:13:54;21.17;;;10.30;;
5460;SDS011;2753;49.196;8.286;2022-11-12T01:16:25;29.90;;;11.40;;
5460;SDS011;2753;49.196;8.286;2022-11-12T01:18:53;42.37;;;10.77;;
5460;SDS011;2753;49.196;8.286;2022-11-12T01:21:21;29.93;;;10.07;;
5460;SDS011;2753;49.196;8.286;2022-11-12T01:23:51;25.17;;;10.60;;
5460;SDS011;2753;49.196;8.286;2022-11-12T01:26:18;32.53;;;9.67;;
5460;SDS011;2753;49.196;8.286;2022-11-12T01:28:45;17.27;;;9.07;;
5460;SDS011;2753;49.196;8.286;2022-11-12T01:33:39;31.53;;;10.60;;
5460;SDS011;2753;49.196;8.286;2022-11-12T01:36:06;33.37;;;11.20;;
5460;SDS011;2753;49.196;8.286;2022-11-12T01:38:35;25.67;;;10.83;;
5460;SDS011;2753;49.196;8.286;2022-11-12T01:41:05;28.63;;;10.97;;
5460;SDS011;2753;49.196;8.286;2022-11-12T01:43:33;21.90;;;10.80;;
5460;SDS011;2753;49.196;8.286;2022-11-12T01:46:00;23.43;;;10.30;;
5460;SDS011;2753;49.196;8.286;2022-11-12T01:48:37;22.00;;;10.20;;
5460;SDS011;2753;49.196;8.286;2022-11-12T01:51:22;21.77;;;9.97;;
5460;SDS011;2753;49.196;8.286;2022-11-12T01:53:53;19.43;;;9.30;;
5460;SDS011;2753;49.196;8.286;2022-11-12T01:56:22;15.60;;;9.50;;
5460;SDS011;2753;49.196;8.286;2022-11-12T01:58:51;25.13;;;10.50;;
5460;SDS011;2753;49.196;8.286;2022-11-12T02:01:26;22.67;;;8.97;;
5460;SDS011;2753;49.196;8.286;2022-11-12T02:03:52;21.17;;;10.60;;
5460;SDS011;2753;49.196;8.286;2022-11-12T02:06:18;21.37;;;8.67;;
5460;SDS011;2753;49.196;8.286;2022-11-12T02:08:45;20.33;;;9.27;;
5460;SDS011;2753;49.196;8.286;2022-11-12T02:11:11;22.03;;;8.13;;
5460;SDS011;2753;49.196;8.286;2022-11-12T02:13:39;15.13;;;8.63;;
5460;SDS011;2753;49.196;8.286;2022-11-12T02:18:56;22.03;;;9.33;;
5460;SDS011;2753;49.196;8.286;2022-11-12T02:21:22;21.20;;;9.70;;
5460;SDS011;2753;49.196;8.286;2022-11-12T02:23:59;22.60;;;10.53;;
5460;SDS011;2753;49.196;8.286;2022-11-12T02:26:38;17.43;;;10.10;;
5460;SDS011;2753;49.196;8.286;2022-11-12T02:29:08;20.20;;;11.40;;
5460;SDS011;2753;49.196;8.286;2022-11-12T02:31:34;25.60;;;11.43;;
5460;SDS011;2753;49.196;8.286;2022-11-12T02:34:00;27.50;;;11.50;;
5460;SDS011;2753;49.196;8.286;2022-11-12T02:36:27;29.80;;;11.00;;
5460;SDS011;2753;49.196;8.286;2022-11-12T02:38:53;33.17;;;11.87;;
5460;SDS011;2753;49.196;8.286;2022-11-12T02:41:19;22.17;;;11.73;;
5460;SDS011;2753;49.196;8.286;2022-11-12T02:43:45;35.50;;;11.40;;
5460;SDS011;2753;49.196;8.286;2022-11-12T02:46:11;18.00;;;10.40;;
5460;SDS011;2753;49.196;8.286;2022-11-12T02:48:37;29.67;;;12.60;;
5460;SDS011;2753;49.196;8.286;2022-11-12T02:51:03;21.63;;;12.63;;
5460;SDS011;2753;49.196;8.286;2022-11-12T02:53:29;32.00;;;12.43;;
5460;SDS011;2753;49.196;8.286;2022-11-12T02:55:56;29.97;;;11.97;;
5460;SDS011;2753;49.196;8.286;2022-11-12T02:58:23;25.33;;;13.13;;
5460;SDS011;2753;49.196;8.286;2022-11-12T03:00:48;23.27;;;11.00;;
5460;SDS011;2753;49.196;8.286;2022-11-12T03:03:14;23.80;;;11.17;;
5460;SDS011;2753;49.196;8.286;2022-11-12T03:05:41;29.70;;;11.80;;
5460;SDS011;2753;49.196;8.286;2022-11-12T03:08:07;39.10;;;14.10;;
5460;SDS011;2753;49.196;8.286;2022-11-12T03:10:35;32.10;;;11.90;;
5460;SDS011;2753;49.196;8.286;2022-11-12T03:13:02;25.67;;;11.70;;
5460;SDS011;2753;49.196;8.286;2022-11-12T03:15:29;20.80;;;10.07;;
5460;SDS011;2753;49.196;8.286;2022-11-12T03:17:58;17.60;;;10.30;;
5460;SDS011;2753;49.196;8.286;2022-11-12T03:20:24;15.90;;;10.17;;
5460;SDS011;2753;49.196;8.286;2022-11-12T03:22:58;15.67;;;9.30;;
5460;SDS011;2753;49.196;8.286;2022-11-12T03:25:25;19.97;;;9.57;;
5460;SDS011;2753;49.196;8.286;2022-11-12T03:27:58;24.27;;;9.13;;
5460;SDS011;2753;49.196;8.286;2022-11-12T03:30:26;20.93;;;10.67;;
5460;SDS011;2753;49.196;8.286;2022-11-12T03:32:53;17.03;;;9.17;;
5460;SDS011;2753;49.196;8.286;2022-11-12T03:35:19;14.80;;;9.07;;
5460;SDS011;2753;49.196;8.286;2022-11-12T03:37:45;16.67;;;8.77;;
5460;SDS011;2753;49.196;8.286;2022-11-12T03:40:10;17.50;;;9.77;;
5460;SDS011;2753;49.196;8.286;2022-11-12T03:42:36;20.27;;;8.37;;
5460;SDS011;2753;49.196;8.286;2022-11-12T03:45:02;13.83;;;8.80;;
5460;SDS011;2753;49.196;8.286;2022-11-12T03:47:28;15.43;;;9.10;;
5460;SDS011;2753;49.196;8.286;2022-11-12T03:49:54;14.20;;;8.40;;
5460;SDS011;2753;49.196;8.286;2022-11-12T03:52:20;14.20;;;9.40;;
5460;SDS011;2753;49.196;8.286;2022-11-12T03:54:45;16.63;;;10.00;;
5460;SDS011;2753;49.196;8.286;2022-11-12T03:57:11;16.83;;;9.40;;
5460;SDS011;2753;49.196;8.286;2022-11-12T03:59:37;21.60;;;10.00;;
5460;SDS011;2753;49.196;8.286;2022-11-12T04:02:02;21.10;;;10.00;;
5460;SDS011;2753;49.196;8.286;2022-11-12T04:04:28;15.93;;;9.70;;
5460;SDS011;2753;49.196;8.286;2022-11-12T04:07:13;14.80;;;9.40;;
5460;SDS011;2753;49.196;8.286;2022-11-12T04:09:57;19.93;;;10.17;;
5460;SDS011;2753;49.196;8.286;2022-11-12T04:12:23;21.37;;;11.77;;
5460;SDS011;2753;49.196;8.286;2022-11-12T04:15:08;16.70;;;11.30;;
5460;SDS011;2753;49.196;8.286;2022-11-12T04:17:33;20.07;;;11.80;;
5460;SDS011;2753;49.196;8.286;2022-11-12T04:20:17;19.77;;;11.70;;
5460;SDS011;2753;49.196;8.286;2022-11-12T04:23:01;20.80;;;11.80;;
5460;SDS011;2753;49.196;8.286;2022-11-12T04:25:27;21.73;;;11.80;;
5460;SDS011;2753;49.196;8.286;2022-11-12T04:28:11;16.87;;;9.53;;
5460;SDS011;2753;49.196;8.286;2022-11-12T04:30:37;15.97;;;9.40;;
5460;SDS011;2753;49.196;8.286;2022-11-12T04:33:03;22.10;;;10.93;;
5460;SDS011;2753;49.196;8.286;2022-11-12T04:35:28;18.93;;;8.73;;
5460;SDS011;2753;49.196;8.286;2022-11-12T04:37:54;20.77;;;11.43;;
5460;SDS011;2753;49.196;8.286;2022-11-12T04:40:22;15.83;;;10.27;;
5460;SDS011;2753;49.196;8.286;2022-11-12T04:43:08;21.90;;;11.67;;
5460;SDS011;2753;49.196;8.286;2022-11-12T04:45:54;23.80;;;13.40;;
5460;SDS011;2753;49.196;8.286;2022-11-12T04:48:21;23.27;;;12.60;;
5460;SDS011;2753;49.196;8.286;2022-11-12T04:51:01;31.87;;;14.77;;
5460;SDS011;2753;49.196;8.286;2022-11-12T04:53:48;22.73;;;12.13;;
5460;SDS011;2753;49.196;8.286;2022-11-12T04:56:14;18.90;;;11.40;;
5460;SDS011;2753;49.196;8.286;2022-11-12T04:58:40;18.60;;;12.20;;
5460;SDS011;2753;49.196;8.286;2022-11-12T05:01:06;19.73;;;10.50;;
5460;SDS011;2753;49.196;8.286;2022-11-12T05:03:31;24.93;;;12.70;;
5460;SDS011;2753;49.196;8.286;2022-11-12T05:06:01;24.60;;;13.40;;
5460;SDS011;2753;49.196;8.286;2022-11-12T05:08:28;26.47;;;14.07;;
5460;SDS011;2753;49.196;8.286;2022-11-12T05:10:53;28.17;;;15.20;;
5460;SDS011;2753;49.196;8.286;2022-11-12T05:13:19;28.13;;;14.63;;
5460;SDS011;2753;49.196;8.286;2022-11-12T05:15:45;27.07;;;14.70;;
5460;SDS011;2753;49.196;8.286;2022-11-12T05:18:10;28.47;;;16.23;;
5460;SDS011;2753;49.196;8.286;2022-11-12T05:20:36;30.37;;;15.97;;
5460;SDS011;2753;49.196;8.286;2022-11-12T05:23:02;34.60;;;16.30;;
5460;SDS011;2753;49.196;8.286;2022-11-12T05:25:27;33.57;;;16.10;;
5460;SDS011;2753;49.196;8.286;2022-11-12T05:27:53;32.50;;;17.53;;
5460;SDS011;2753;49.196;8.286;2022-11-12T05:30:19;21.73;;;14.33;;
5460;SDS011;2753;49.196;8.286;2022-11-12T05:32:45;21.20;;;13.27;;
5460;SDS011;2753;49.196;8.286;2022-11-12T05:35:10;24.37;;;12.67;;
5460;SDS011;2753;49.196;8.286;2022-11-12T05:37:36;31.53;;;14.63;;
5460;SDS011;2753;49.196;8.286;2022-11-12T05:40:01;19.20;;;11.53;;
5460;SDS011;2753;49.196;8.286;2022-11-12T05:42:28;20.57;;;12.50;;
5460;SDS011;2753;49.196;8.286;2022-11-12T05:44:53;23.60;;;12.20;;
5460;SDS011;2753;49.196;8.286;2022-11-12T05:47:19;24.80;;;14.07;;
5460;SDS011;2753;49.196;8.286;2022-11-12T05:49:44;27.87;;;15.90;;
5460;SDS011;2753;49.196;8.286;2022-11-12T05:52:10;25.07;;;12.60;;
5460;SDS011;2753;49.196;8.286;2022-11-12T05:54:36;25.17;;;13.60;;
5460;SDS011;2753;49.196;8.286;2022-11-12T05:57:01;25.60;;;13.47;;
5460;SDS011;2753;49.196;8.286;2022-11-12T05:59:28;22.57;;;12.63;;
5460;SDS011;2753;49.196;8.286;2022-11-12T06:01:53;22.00;;;13.10;;
5460;SDS011;2753;49.196;8.286;2022-11-12T06:04:19;24.90;;;13.40;;
5460;SDS011;2753;49.196;8.286;2022-11-12T06:06:46;25.53;;;13.83;;
5460;SDS011;2753;49.196;8.286;2022-11-12T06:09:11;33.63;;;14.00;;
5460;SDS011;2753;49.196;8.286;2022-11-12T06:11:37;27.43;;;13.57;;
5460;SDS011;2753;49.196;8.286;2022-11-12T06:14:04;25.90;;;15.07;;
5460;SDS011;2753;49.196;8.286;2022-11-12T06:16:30;27.30;;;13.70;;
5460;SDS011;2753;49.196;8.286;2022-11-12T06:18:56;26.83;;;13.40;;
5460;SDS011;2753;49.196;8.286;2022-11-12T06:21:23;29.67;;;13.00;;
5460;SDS011;2753;49.196;8.286;2022-11-12T06:23:50;22.90;;;12.37;;
5460;SDS011;2753;49.196;8.286;2022-11-12T06:26:18;28.50;;;13.33;;
5460;SDS011;2753;49.196;8.286;2022-11-12T06:28:44;23.40;;;13.20;;
5460;SDS011;2753;49.196;8.286;2022-11-12T06:31:11;29.83;;;14.27;;
5460;SDS011;2753;49.196;8.286;2022-11-12T06:33:37;23.50;;;12.77;;
5460;SDS011;2753;49.196;8.286;2022-11-12T06:36:03;25.87;;;13.20;;
5460;SDS011;2753;49.196;8.286;2022-11-12T06:38:31;24.90;;;12.33;;
5460;SDS011;2753;49.196;8.286;2022-11-12T06:40:58;21.33;;;12.10;;
5460;SDS011;2753;49.196;8.286;2022-11-12T06:43:24;32.20;;;14.20;;
5460;SDS011;2753;49.196;8.286;2022-11-12T06:45:51;22.90;;;12.73;;
5460;SDS011;2753;49.196;8.286;2022-11-12T06:48:17;23.63;;;13.50;;
5460;SDS011;2753;49.196;8.286;2022-11-12T06:50:43;31.53;;;15.50;;
5460;SDS011;2753;49.196;8.286;2022-11-12T06:53:09;28.57;;;15.57;;
5460;SDS011;2753;49.196;8.286;2022-11-12T06:55:34;32.60;;;15.17;;
5460;SDS011;2753;49.196;8.286;2022-11-12T06:58:00;25.70;;;14.93;;
5460;SDS011;2753;49.196;8.286;2022-11-12T07:00:26;22.67;;;14.40;;
5460;SDS011;2753;49.196;8.286;2022-11-12T07:02:51;30.20;;;17.83;;
5460;SDS011;2753;49.196;8.286;2022-11-12T07:05:17;41.43;;;18.30;;
5460;SDS011;2753;49.196;8.286;2022-11-12T07:07:43;41.47;;;16.40;;
5460;SDS011;2753;49.196;8.286;2022-11-12T07:10:08;27.13;;;15.87;;
5460;SDS011;2753;49.196;8.286;2022-11-12T07:12:34;27.67;;;15.40;;
5460;SDS011;2753;49.196;8.286;2022-11-12T07:15:00;29.20;;;15.60;;
5460;SDS011;2753;49.196;8.286;2022-11-12T07:17:25;26.67;;;15.27;;
5460;SDS011;2753;49.196;8.286;2022-11-12T07:19:51;26.97;;;15.93;;
5460;SDS011;2753;49.196;8.286;2022-11-12T07:22:16;30.60;;;14.03;;
5460;SDS011;2753;49.196;8.286;2022-11-12T07:24:42;22.77;;;14.33;;
5460;SDS011;2753;49.196;8.286;2022-11-12T07:27:08;27.47;;;16.37;;
5460;SDS011;2753;49.196;8.286;2022-11-12T07:29:34;31.63;;;15.93;;
5460;SDS011;2753;49.196;8.286;2022-11-12T07:31:59;25.30;;;15.93;;
5460;SDS011;2753;49.196;8.286;2022-11-12T07:34:25;25.50;;;15.47;;
5460;SDS011;2753;49.196;8.286;2022-11-12T07:36:51;27.37;;;16.00;;
5460;SDS011;2753;49.196;8.286;2022-11-12T07:39:17;25.13;;;16.63;;
5460;SDS011;2753;49.196;8.286;2022-11-12T07:41:43;27.20;;;17.97;;
5460;SDS011;2753;49.196;8.286;2022-11-12T07:44:08;29.83;;;18.90;;
5460;SDS011;2753;49.196;8.286;2022-11-12T07:46:34;29.87;;;17.80;;
5460;SDS011;2753;49.196;8.286;2022-11-12T07:49:00;27.10;;;16.57;;
5460;SDS011;2753;49.196;8.286;2022-11-12T07:51:27;30.33;;;16.80;;
5460;SDS011;2753;49.196;8.286;2022-11-12T07:53:54;27.47;;;16.30;;
5460;SDS011;2753;49.196;8.286;2022-11-12T07:56:22;22.40;;;16.10;;
5460;SDS011;2753;49.196;8.286;2022-11-12T07:58:49;24.80;;;13.93;;
5460;SDS011;2753;49.196;8.286;2022-11-12T08:01:22;21.03;;;14.33;;
5460;SDS011;2753;49.196;8.286;2022-11-12T08:04:01;18.47;;;12.87;;
5460;SDS011;2753;49.196;8.286;2022-11-12T08:06:30;18.93;;;13.67;;
5460;SDS011;2753;49.196;8.286;2022-11-12T08:08:56;16.17;;;12.50;;
5460;SDS011;2753;49.196;8.286;2022-11-12T08:11:23;21.30;;;14.40;;
5460;SDS011;2753;49.196;8.286;2022-11-12T08:13:49;25.90;;;16.20;;
5460;SDS011;2753;49.196;8.286;2022-11-12T08:16:15;21.90;;;14.60;;
5460;SDS011;2753;49.196;8.286;2022-11-12T08:18:41;15.90;;;11.93;;
5460;SDS011;2753;49.196;8.286;2022-11-12T08:21:08;18.63;;;11.43;;
5460;SDS011;2753;49.196;8.286;2022-11-12T08:23:36;17.17;;;12.27;;
5460;SDS011;2753;49.196;8.286;2022-11-12T08:26:03;17.53;;;12.27;;
5460;SDS011;2753;49.196;8.286;2022-11-12T08:28:32;17.13;;;12.17;;
5460;SDS011;2753;49.196;8.286;2022-11-12T08:31:02;13.00;;;10.37;;
5460;SDS011;2753;49.196;8.286;2022-11-12T08:33:29;17.33;;;12.10;;
5460;SDS011;2753;49.196;8.286;2022-11-12T08:35:56;20.00;;;13.23;;
5460;SDS011;2753;49.196;8.286;2022-11-12T08:38:22;19.07;;;13.23;;
5460;SDS011;2753;49.196;8.286;2022-11-12T08:40:47;21.00;;;13.93;;
5460;SDS011;2753;49.196;8.286;2022-11-12T08:43:13;15.10;;;12.43;;
5460;SDS011;2753;49.196;8.286;2022-11-12T08:45:39;17.23;;;12.67;;
5460;SDS011;2753;49.196;8.286;2022-11-12T08:48:06;21.47;;;14.00;;
5460;SDS011;2753;49.196;8.286;2022-11-12T08:50:34;22.90;;;14.87;;
5460;SDS011;2753;49.196;8.286;2022-11-12T08:53:01;21.40;;;15.17;;
5460;SDS011;2753;49.196;8.286;2022-11-12T08:55:29;23.07;;;15.60;;
5460;SDS011;2753;49.196;8.286;2022-11-12T08:57:56;23.77;;;15.07;;
5460;SDS011;2753;49.196;8.286;2022-11-12T09:00:32;29.77;;;16.80;;
5460;SDS011;2753;49.196;8.286;2022-11-12T09:02:59;25.67;;;17.30;;
5460;SDS011;2753;49.196;8.286;2022-11-12T09:05:29;22.43;;;14.80;;
5460;SDS011;2753;49.196;8.286;2022-11-12T09:08:05;27.57;;;17.20;;
5460;SDS011;2753;49.196;8.286;2022-11-12T09:10:38;27.63;;;16.53;;
5460;SDS011;2753;49.196;8.286;2022-11-12T09:13:04;19.77;;;14.13;;
5460;SDS011;2753;49.196;8.286;2022-11-12T09:15:31;27.63;;;17.00;;
5460;SDS011;2753;49.196;8.286;2022-11-12T09:17:57;24.90;;;16.77;;
5460;SDS011;2753;49.196;8.286;2022-11-12T09:20:25;22.00;;;17.10;;
5460;SDS011;2753;49.196;8.286;2022-11-12T09:22:52;30.87;;;19.60;;
5460;SDS011;2753;49.196;8.286;2022-11-12T09:25:21;29.97;;;17.43;;
5460;SDS011;2753;49.196;8.286;2022-11-12T09:27:47;24.53;;;17.73;;
5460;SDS011;2753;49.196;8.286;2022-11-12T09:30:13;30.23;;;18.70;;
5460;SDS011;2753;49.196;8.286;2022-11-12T09:32:40;24.70;;;17.73;;
5460;SDS011;2753;49.196;8.286;2022-11-12T09:35:06;30.80;;;17.17;;
5460;SDS011;2753;49.196;8.286;2022-11-12T09:37:32;23.77;;;17.10;;
5460;SDS011;2753;49.196;8.286;2022-11-12T09:39:58;27.53;;;17.00;;
5460;SDS011;2753;49.196;8.286;2022-11-12T09:42:24;26.67;;;16.83;;
5460;SDS011;2753;49.196;8.286;2022-11-12T09:44:55;44.80;;;26.13;;
5460;SDS011;2753;49.196;8.286;2022-11-12T09:47:26;68.70;;;42.07;;
5460;SDS011;2753;49.196;8.286;2022-11-12T09:50:09;30.30;;;19.47;;
5460;SDS011;2753;49.196;8.286;2022-11-12T09:52:44;31.43;;;18.50;;
5460;SDS011;2753;49.196;8.286;2022-11-12T09:55:33;30.93;;;18.37;;
5460;SDS011;2753;49.196;8.286;2022-11-12T09:58:08;28.90;;;21.70;;
5460;SDS011;2753;49.196;8.286;2022-11-12T10:00:39;30.53;;;22.00;;
5460;SDS011;2753;49.196;8.286;2022-11-12T10:06:12;27.50;;;16.97;;
5460;SDS011;2753;49.196;8.286;2022-11-12T10:09:06;30.90;;;18.27;;
5460;SDS011;2753;49.196;8.286;2022-11-12T10:11:54;33.23;;;20.30;;
5460;SDS011;2753;49.196;8.286;2022-11-12T10:18:03;36.23;;;19.73;;
5460;SDS011;2753;49.196;8.286;2022-11-12T10:25:59;25.90;;;17.97;;
5460;SDS011;2753;49.196;8.286;2022-11-12T10:29:22;25.97;;;18.00;;
5460;SDS011;2753;49.196;8.286;2022-11-12T10:31:26;23.07;;;17.73;;
5460;SDS011;2753;49.196;8.286;2022-11-12T10:34:04;23.80;;;17.70;;
5460;SDS011;2753;49.196;8.286;2022-11-12T10:36:52;25.17;;;16.70;;
5460;SDS011;2753;49.196;8.286;2022-11-12T10:42:10;24.53;;;16.90;;
5460;SDS011;2753;49.196;8.286;2022-11-12T10:44:37;19.53;;;14.90;;
5460;SDS011;2753;49.196;8.286;2022-11-12T10:47:21;22.93;;;15.37;;
5460;SDS011;2753;49.196;8.286;2022-11-12T10:52:59;24.10;;;15.17;;
5460;SDS011;2753;49.196;8.286;2022-11-12T10:55:29;28.60;;;19.80;;
5460;SDS011;2753;49.196;8.286;2022-11-12T11:00:31;36.73;;;19.40;;
5460;SDS011;2753;49.196;8.286;2022-11-12T11:02:57;27.37;;;18.50;;
5460;SDS011;2753;49.196;8.286;2022-11-12T11:05:35;20.07;;;16.63;;
5460;SDS011;2753;49.196;8.286;2022-11-12T11:08:04;19.90;;;15.50;;
5460;SDS011;2753;49.196;8.286;2022-11-12T11:10:34;21.50;;;16.30;;
5460;SDS011;2753;49.196;8.286;2022-11-12T11:13:08;18.70;;;14.13;;
5460;SDS011;2753;49.196;8.286;2022-11-12T11:15:41;20.93;;;13.73;;
5460;SDS011;2753;49.196;8.286;2022-11-12T11:18:24;17.13;;;13.97;;
5460;SDS011;2753;49.196;8.286;2022-11-12T11:20:55;17.93;;;12.67;;
5460;SDS011;2753;49.196;8.286;2022-11-12T11:23:45;19.73;;;12.73;;
5460;SDS011;2753;49.196;8.286;2022-11-12T11:32:30;27.30;;;17.20;;
5460;SDS011;2753;49.196;8.286;2022-11-12T11:35:13;28.73;;;16.10;;
5460;SDS011;2753;49.196;8.286;2022-11-12T11:46:07;26.37;;;17.47;;
5460;SDS011;2753;49.196;8.286;2022-11-12T11:54:12;32.57;;;19.10;;
5460;SDS011;2753;49.196;8.286;2022-11-12T11:56:45;32.50;;;18.50;;
5460;SDS011;2753;49.196;8.286;2022-11-12T12:04:41;35.77;;;20.97;;
5460;SDS011;2753;49.196;8.286;2022-11-12T12:20:53;40.90;;;23.77;;
5460;SDS011;2753;49.196;8.286;2022-11-12T12:23:28;40.87;;;25.20;;
5460;SDS011;2753;49.196;8.286;2022-11-12T12:26:06;37.40;;;21.90;;
5460;SDS011;2753;49.196;8.286;2022-11-12T12:33:55;38.00;;;23.30;;
5460;SDS011;2753;49.196;8.286;2022-11-12T12:41:56;45.60;;;25.37;;
5460;SDS011;2753;49.196;8.286;2022-11-12T12:44:26;44.53;;;25.07;;
5460;SDS011;2753;49.196;8.286;2022-11-12T12:47:17;38.90;;;23.70;;
5460;SDS011;2753;49.196;8.286;2022-11-12T12:49:45;41.67;;;24.20;;
5460;SDS011;2753;49.196;8.286;2022-11-12T12:52:12;47.57;;;26.07;;
5460;SDS011;2753;49.196;8.286;2022-11-12T13:02:59;49.03;;;27.80;;
5460;SDS011;2753;49.196;8.286;2022-11-12T13:05:43;44.40;;;29.57;;
5460;SDS011;2753;49.196;8.286;2022-11-12T13:08:12;50.27;;;29.20;;
5460;SDS011;2753;49.196;8.286;2022-11-12T13:10:45;62.93;;;31.33;;
5460;SDS011;2753;49.196;8.286;2022-11-12T13:15:48;56.47;;;33.80;;
5460;SDS011;2753;49.196;8.286;2022-11-12T13:19:19;57.50;;;31.17;;
5460;SDS011;2753;49.196;8.286;2022-11-12T13:29:19;38.30;;;24.83;;
5460;SDS011;2753;49.196;8.286;2022-11-12T13:40:14;45.40;;;27.20;;
5460;SDS011;2753;49.196;8.286;2022-11-12T13:42:49;39.53;;;25.10;;
5460;SDS011;2753;49.196;8.286;2022-11-12T13:45:16;38.53;;;24.00;;
5460;SDS011;2753;49.196;8.286;2022-11-12T13:47:47;39.43;;;23.23;;
5460;SDS011;2753;49.196;8.286;2022-11-12T13:50:15;42.40;;;24.80;;
5460;SDS011;2753;49.196;8.286;2022-11-12T13:52:45;45.40;;;24.27;;
5460;SDS011;2753;49.196;8.286;2022-11-12T13:55:13;51.57;;;28.50;;
5460;SDS011;2753;49.196;8.286;2022-11-12T13:57:39;46.67;;;24.30;;
5460;SDS011;2753;49.196;8.286;2022-11-12T14:02:47;50.13;;;26.50;;
5460;SDS011;2753;49.196;8.286;2022-11-12T14:05:23;38.00;;;24.20;;
5460;SDS011;2753;49.196;8.286;2022-11-12T14:07:59;42.67;;;24.77;;
5460;SDS011;2753;49.196;8.286;2022-11-12T14:19:11;38.33;;;23.00;;
5460;SDS011;2753;49.196;8.286;2022-11-12T14:22:12;38.67;;;23.67;;
5460;SDS011;2753;49.196;8.286;2022-11-12T14:24:40;56.47;;;27.70;;
5460;SDS011;2753;49.196;8.286;2022-11-12T14:30:24;71.63;;;32.83;;
5460;SDS011;2753;49.196;8.286;2022-11-12T14:33:38;72.50;;;32.57;;
5460;SDS011;2753;49.196;8.286;2022-11-12T14:35:45;69.50;;;31.27;;
5460;SDS011;2753;49.196;8.286;2022-11-12T14:38:22;71.17;;;31.33;;
5460;SDS011;2753;49.196;8.286;2022-11-12T14:41:01;70.90;;;31.87;;
5460;SDS011;2753;49.196;8.286;2022-11-12T14:49:11;70.93;;;31.70;;
5460;SDS011;2753;49.196;8.286;2022-11-12T14:51:49;71.70;;;32.80;;
5460;SDS011;2753;49.196;8.286;2022-11-12T14:54:34;73.17;;;33.27;;
5460;SDS011;2753;49.196;8.286;2022-11-12T14:57:05;86.53;;;37.03;;
5460;SDS011;2753;49.196;8.286;2022-11-12T14:59:41;68.90;;;32.03;;
5460;SDS011;2753;49.196;8.286;2022-11-12T15:02:08;79.27;;;34.20;;
5460;SDS011;2753;49.196;8.286;2022-11-12T15:04:50;75.37;;;33.50;;
5460;SDS011;2753;49.196;8.286;2022-11-12T15:09:48;78.43;;;35.73;;
5460;SDS011;2753;49.196;8.286;2022-11-12T15:12:18;78.23;;;38.10;;
5460;SDS011;2753;49.196;8.286;2022-11-12T15:14:53;72.90;;;34.10;;
5460;SDS011;2753;49.196;8.286;2022-11-12T15:17:32;79.17;;;35.10;;
5460;SDS011;2753;49.196;8.286;2022-11-12T15:20:00;74.63;;;33.47;;
5460;SDS011;2753;49.196;8.286;2022-11-12T15:22:28;65.03;;;32.50;;
5460;SDS011;2753;49.196;8.286;2022-11-12T15:24:54;82.47;;;33.90;;
5460;SDS011;2753;49.196;8.286;2022-11-12T15:27:33;68.23;;;31.47;;
5460;SDS011;2753;49.196;8.286;2022-11-12T15:30:17;85.83;;;39.10;;
5460;SDS011;2753;49.196;8.286;2022-11-12T15:32:44;79.33;;;36.00;;
5460;SDS011;2753;49.196;8.286;2022-11-12T15:41:02;66.60;;;33.23;;
5460;SDS011;2753;49.196;8.286;2022-11-12T15:43:35;81.63;;;36.40;;
5460;SDS011;2753;49.196;8.286;2022-11-12T15:46:10;84.43;;;34.27;;
5460;SDS011;2753;49.196;8.286;2022-11-12T15:48:40;85.30;;;35.37;;
5460;SDS011;2753;49.196;8.286;2022-11-12T15:51:07;79.63;;;34.80;;
5460;SDS011;2753;49.196;8.286;2022-11-12T15:53:36;80.53;;;35.50;;
5460;SDS011;2753;49.196;8.286;2022-11-12T15:56:02;87.87;;;36.77;;
5460;SDS011;2753;49.196;8.286;2022-11-12T15:58:34;85.97;;;35.83;;
5460;SDS011;2753;49.196;8.286;2022-11-12T16:01:02;86.23;;;39.47;;
5460;SDS011;2753;49.196;8.286;2022-11-12T16:03:29;95.00;;;36.60;;
5460;SDS011;2753;49.196;8.286;2022-11-12T16:05:55;80.47;;;35.13;;
5460;SDS011;2753;49.196;8.286;2022-11-12T16:08:21;90.60;;;38.67;;
5460;SDS011;2753;49.196;8.286;2022-11-12T16:10:47;105.73;;;41.13;;
5460;SDS011;2753;49.196;8.286;2022-11-12T16:13:34;83.60;;;36.20;;
5460;SDS011;2753;49.196;8.286;2022-11-12T16:16:03;87.27;;;37.23;;
5460;SDS011;2753;49.196;8.286;2022-11-12T16:18:32;89.90;;;36.30;;
5460;SDS011;2753;49.196;8.286;2022-11-12T16:20:57;80.43;;;35.10;;
5460;SDS011;2753;49.196;8.286;2022-11-12T16:23:23;84.13;;;35.93;;
5460;SDS011;2753;49.196;8.286;2022-11-12T16:25:49;80.73;;;35.50;;
5460;SDS011;2753;49.196;8.286;2022-11-12T16:28:15;73.63;;;34.50;;
5460;SDS011;2753;49.196;8.286;2022-11-12T16:30:42;83.03;;;35.37;;
5460;SDS011;2753;49.196;8.286;2022-11-12T16:33:09;81.50;;;36.60;;
5460;SDS011;2753;49.196;8.286;2022-11-12T16:35:36;93.20;;;39.00;;
5460;SDS011;2753;49.196;8.286;2022-11-12T16:38:02;80.97;;;32.53;;
5460;SDS011;2753;49.196;8.286;2022-11-12T16:40:28;74.20;;;34.07;;
5460;SDS011;2753;49.196;8.286;2022-11-12T16:42:54;83.50;;;35.70;;
5460;SDS011;2753;49.196;8.286;2022-11-12T16:45:22;75.60;;;33.70;;
5460;SDS011;2753;49.196;8.286;2022-11-12T16:47:50;79.83;;;33.40;;
5460;SDS011;2753;49.196;8.286;2022-11-12T16:50:23;74.33;;;35.27;;
5460;SDS011;2753;49.196;8.286;2022-11-12T16:52:51;71.97;;;33.40;;
5460;SDS011;2753;49.196;8.286;2022-11-12T16:55:17;72.70;;;33.27;;
5460;SDS011;2753;49.196;8.286;2022-11-12T16:57:43;75.57;;;32.30;;
5460;SDS011;2753;49.196;8.286;2022-11-12T17:00:10;80.37;;;34.87;;
5460;SDS011;2753;49.196;8.286;2022-11-12T17:02:37;68.23;;;31.40;;
5460;SDS011;2753;49.196;8.286;2022-11-12T17:05:03;77.80;;;32.43;;
5460;SDS011;2753;49.196;8.286;2022-11-12T17:07:32;75.50;;;33.50;;
5460;SDS011;2753;49.196;8.286;2022-11-12T17:09:57;69.83;;;31.80;;
5460;SDS011;2753;49.196;8.286;2022-11-12T17:12:23;72.00;;;32.40;;